Time;durP1;ratioP1;P1;durP2;ratioP2;P2;SDS_P1;SDS_P2;PMS_P1;PMS_P2;Temp;Humidity;BMP_temperature;BMP_pressure;BME280_temperature;BME280_humidity;BME280_pressure;Samples;Min_cycle;Max_cycle;Signal;HPM_P1;HPM_P2
2021/08/06 00:01:33;;;;;;;4.30;1.65;;;;;;;;;;5045995;28;20504;-73
2021/08/06 00:04:18;;;;;;;1.98;1.45;;;;;;;;;;5047097;28;20040;-73
2021/08/06 00:07:03;;;;;;;2.15;1.63;;;;;;;;;;5051571;28;20067;-73
2021/08/06 00:09:47;;;;;;;1.73;1.42;;;;;;;;;;5081272;28;20090;-73
2021/08/06 00:12:32;;;;;;;2.25;1.58;;;;;;;;;;5076714;28;20094;-73
2021/08/06 00:15:16;;;;;;;2.40;1.60;;;;;;;;;;5046008;28;20043;-73
2021/08/06 00:18:01;;;;;;;2.25;1.70;;;;;;;;;;5046173;28;20040;-73
2021/08/06 00:20:45;;;;;;;2.35;1.60;;;;;;;;;;5060567;28;20083;-73
2021/08/06 00:23:30;;;;;;;3.55;1.50;;;;;;;;;;5080609;28;20132;-73
2021/08/06 00:26:14;;;;;;;2.13;1.70;;;;;;;;;;5066497;28;20083;-73
2021/08/06 00:28:59;;;;;;;2.05;1.40;;;;;;;;;;5051123;28;20117;-73
2021/08/06 00:31:43;;;;;;;2.55;1.60;;;;;;;;;;5057432;28;20091;-72
2021/08/06 00:34:28;;;;;;;2.45;1.73;;;;;;;;;;5038061;28;20066;-72
2021/08/06 00:37:13;;;;;;;1.95;1.50;;;;;;;;;;5059062;28;20524;-73
2021/08/06 00:39:57;;;;;;;1.92;1.42;;;;;;;;;;5058585;28;20095;-72
2021/08/06 00:42:42;;;;;;;1.90;1.30;;;;;;;;;;5050395;28;20865;-72
2021/08/06 00:45:26;;;;;;;2.53;1.40;;;;;;;;;;5084431;28;20440;-72
2021/08/06 00:48:11;;;;;;;2.13;1.63;;;;;;;;;;5047136;28;20039;-73
2021/08/06 00:50:56;;;;;;;2.20;1.70;;;;;;;;;;5046376;28;20132;-72
2021/08/06 00:53:40;;;;;;;2.50;1.50;;;;;;;;;;5079501;28;20094;-72
2021/08/06 00:56:25;;;;;;;1.70;1.55;;;;;;;;;;5071896;28;20574;-72
2021/08/06 00:59:09;;;;;;;2.88;1.77;;;;;;;;;;5044114;28;20102;-72
2021/08/06 01:02:00;;;;;;;2.88;1.65;;;;;;;;;;5082740;28;20051;-73
2021/08/06 01:04:51;;;;;;;2.03;1.52;;;;;;;;;;5078229;28;20553;-72
2021/08/06 01:08:14;;;;;;;1.80;1.40;;;;;;;;;;5063155;28;20075;-72
2021/08/06 01:11:00;;;;;;;2.10;1.60;;;;;;;;;;5053139;28;20338;-71
2021/08/06 01:13:51;;;;;;;2.70;1.80;;;;;;;;;;5034103;28;20087;-72
2021/08/06 01:16:36;;;;;;;2.45;1.60;;;;;;;;;;5055715;28;20656;-71
2021/08/06 01:19:27;;;;;;;2.30;2.00;;;;;;;;;;5043615;28;20080;-73
2021/08/06 01:22:15;;;;;;;3.45;1.80;;;;;;;;;;5060490;28;20581;-73
2021/08/06 01:25:15;;;;;;;2.50;1.90;;;;;;;;;;5055130;28;20472;-73
2021/08/06 01:28:00;;;;;;;2.33;1.65;;;;;;;;;;5060220;28;20582;-72
2021/08/06 01:30:44;;;;;;;1.90;1.45;;;;;;;;;;5087266;27;20426;-73
2021/08/06 01:33:29;;;;;;;1.88;1.48;;;;;;;;;;5066021;28;20043;-72
2021/08/06 01:36:13;;;;;;;2.30;1.73;;;;;;;;;;5081366;28;20466;-72
2021/08/06 01:38:58;;;;;;;3.00;1.70;;;;;;;;;;5074700;28;20085;-72
2021/08/06 01:41:55;;;;;;;2.03;1.70;;;;;;;;;;5069293;28;20044;-72
2021/08/06 01:44:45;;;;;;;2.42;1.90;;;;;;;;;;5073669;28;20110;-72
2021/08/06 01:47:38;;;;;;;4.30;1.88;;;;;;;;;;5076739;28;20578;-72
2021/08/06 01:50:36;;;;;;;2.20;1.80;;;;;;;;;;5065874;28;20075;-72
2021/08/06 01:53:21;;;;;;;2.70;1.92;;;;;;;;;;5046037;28;20891;-72
2021/08/06 01:56:07;;;;;;;2.70;1.88;;;;;;;;;;5056530;28;20398;-72
2021/08/06 01:58:52;;;;;;;2.88;1.83;;;;;;;;;;5089028;28;20513;-72
2021/08/06 02:01:38;;;;;;;2.47;1.92;;;;;;;;;;5086486;27;20110;-72
2021/08/06 02:04:23;;;;;;;3.67;2.00;;;;;;;;;;5090530;28;20094;-72
2021/08/06 02:07:08;;;;;;;3.88;1.90;;;;;;;;;;5071039;28;20066;-72
2021/08/06 02:09:53;;;;;;;2.15;1.80;;;;;;;;;;5086138;28;20543;-72
2021/08/06 02:12:38;;;;;;;2.28;1.80;;;;;;;;;;5063282;28;20063;-72
2021/08/06 02:15:22;;;;;;;3.30;1.80;;;;;;;;;;5063775;28;20135;-72
2021/08/06 02:18:07;;;;;;;2.15;1.80;;;;;;;;;;5072467;28;20040;-72
2021/08/06 02:20:52;;;;;;;2.42;1.60;;;;;;;;;;5077584;28;20039;-72
2021/08/06 02:23:36;;;;;;;3.13;1.88;;;;;;;;;;5093105;28;20044;-72
2021/08/06 02:26:21;;;;;;;2.08;1.65;;;;;;;;;;5077985;28;20832;-72
2021/08/06 02:29:06;;;;;;;2.08;1.80;;;;;;;;;;5074371;28;20135;-72
2021/08/06 02:31:51;;;;;;;3.42;2.08;;;;;;;;;;5045794;28;20048;-72
2021/08/06 02:34:35;;;;;;;2.13;1.80;;;;;;;;;;5084035;28;20062;-72
2021/08/06 02:37:20;;;;;;;2.40;1.70;;;;;;;;;;5062279;28;20044;-72
2021/08/06 02:40:05;;;;;;;2.00;1.70;;;;;;;;;;5090316;27;20035;-70
2021/08/06 02:42:51;;;;;;;2.35;1.67;;;;;;;;;;5092825;28;20060;-72
2021/08/06 02:45:35;;;;;;;2.22;1.77;;;;;;;;;;5061315;28;20461;-72
2021/08/06 02:48:20;;;;;;;2.08;1.60;;;;;;;;;;5059489;28;20043;-72
2021/08/06 02:51:05;;;;;;;2.47;1.70;;;;;;;;;;5047793;28;20154;-72
2021/08/06 02:53:49;;;;;;;2.78;1.95;;;;;;;;;;5064826;28;20063;-72
2021/08/06 02:56:34;;;;;;;2.45;2.00;;;;;;;;;;5052506;28;20224;-72
2021/08/06 02:59:18;;;;;;;2.25;1.80;;;;;;;;;;5064131;28;20058;-72
2021/08/06 03:02:03;;;;;;;2.20;1.80;;;;;;;;;;5079352;28;20094;-72
2021/08/06 03:04:48;;;;;;;3.00;1.80;;;;;;;;;;5084337;27;20166;-72
2021/08/06 03:07:32;;;;;;;1.90;1.70;;;;;;;;;;5077837;28;20113;-72
2021/08/06 03:10:19;;;;;;;2.25;1.67;;;;;;;;;;5084865;27;20040;-72
2021/08/06 03:13:03;;;;;;;2.22;1.70;;;;;;;;;;5052569;28;20094;-72
2021/08/06 03:15:48;;;;;;;1.92;1.65;;;;;;;;;;5075318;28;20554;-72
2021/08/06 03:18:33;;;;;;;2.08;1.50;;;;;;;;;;5052293;28;20128;-72
2021/08/06 03:21:17;;;;;;;2.40;1.70;;;;;;;;;;5054836;28;20062;-72
2021/08/06 03:24:02;;;;;;;2.28;1.80;;;;;;;;;;5052255;28;20048;-72
2021/08/06 03:26:47;;;;;;;1.80;1.60;;;;;;;;;;5078459;28;20070;-72
2021/08/06 03:29:31;;;;;;;2.20;1.80;;;;;;;;;;5058528;28;20066;-72
2021/08/06 03:32:15;;;;;;;2.00;1.67;;;;;;;;;;5070795;28;20123;-72
2021/08/06 03:35:00;;;;;;;1.92;1.55;;;;;;;;;;5046869;28;20111;-72
2021/08/06 03:37:44;;;;;;;1.80;1.52;;;;;;;;;;5058758;28;20047;-72
2021/08/06 03:40:29;;;;;;;2.22;1.50;;;;;;;;;;5079311;27;20058;-73
2021/08/06 03:43:14;;;;;;;1.77;1.60;;;;;;;;;;5044495;28;20097;-72
2021/08/06 03:45:59;;;;;;;1.98;1.48;;;;;;;;;;5053156;28;20094;-72
2021/08/06 03:48:43;;;;;;;1.90;1.60;;;;;;;;;;5055118;28;20047;-72
2021/08/06 03:51:28;;;;;;;2.03;1.55;;;;;;;;;;5057717;28;20043;-72
2021/08/06 03:54:13;;;;;;;2.95;1.80;;;;;;;;;;5060378;28;20169;-72
2021/08/06 03:56:57;;;;;;;2.25;1.70;;;;;;;;;;5084066;28;20081;-72
2021/08/06 03:59:42;;;;;;;2.20;1.80;;;;;;;;;;5061732;28;20035;-72
2021/08/06 04:02:26;;;;;;;2.15;1.77;;;;;;;;;;5090537;28;20067;-72
2021/08/06 04:05:11;;;;;;;2.05;1.73;;;;;;;;;;5092606;27;20687;-72
2021/08/06 04:07:56;;;;;;;2.08;1.75;;;;;;;;;;5091868;28;20824;-72
2021/08/06 04:10:40;;;;;;;2.20;1.88;;;;;;;;;;5058725;28;20051;-73
2021/08/06 04:13:25;;;;;;;4.15;2.00;;;;;;;;;;5071989;28;20051;-72
2021/08/06 04:16:09;;;;;;;2.92;1.70;;;;;;;;;;5058538;28;20043;-72
2021/08/06 04:18:54;;;;;;;2.42;1.70;;;;;;;;;;5056530;28;20695;-72
2021/08/06 04:21:38;;;;;;;1.95;1.70;;;;;;;;;;5044127;28;20044;-72
2021/08/06 04:24:23;;;;;;;2.05;1.67;;;;;;;;;;5084943;28;20063;-72
2021/08/06 04:27:07;;;;;;;2.60;1.70;;;;;;;;;;5054403;28;20058;-72
2021/08/06 04:29:52;;;;;;;2.65;1.70;;;;;;;;;;5057627;28;20048;-72
2021/08/06 04:32:36;;;;;;;2.20;1.50;;;;;;;;;;5045413;28;20082;-72
2021/08/06 04:35:21;;;;;;;1.90;1.60;;;;;;;;;;5063144;28;20519;-72
2021/08/06 04:38:06;;;;;;;1.70;1.40;;;;;;;;;;5051849;28;20397;-72
2021/08/06 04:40:50;;;;;;;2.20;1.42;;;;;;;;;;5050305;28;20063;-72
2021/08/06 04:43:35;;;;;;;2.15;1.42;;;;;;;;;;5059825;28;20106;-72
2021/08/06 04:46:19;;;;;;;1.85;1.60;;;;;;;;;;5062386;28;20052;-72
2021/08/06 04:49:04;;;;;;;1.92;1.70;;;;;;;;;;5060214;28;20071;-72
2021/08/06 04:51:48;;;;;;;1.65;1.35;;;;;;;;;;5092391;28;20034;-72
2021/08/06 04:54:33;;;;;;;1.73;1.52;;;;;;;;;;5053732;28;20146;-72
2021/08/06 04:57:17;;;;;;;2.05;1.35;;;;;;;;;;5055847;28;20039;-72
2021/08/06 05:00:04;;;;;;;2.40;1.30;;;;;;;;;;5054742;28;20514;-72
2021/08/06 05:02:48;;;;;;;3.20;1.30;;;;;;;;;;5078769;28;20120;-73
2021/08/06 05:05:33;;;;;;;1.75;1.38;;;;;;;;;;5075323;27;20106;-73
2021/08/06 05:08:17;;;;;;;1.48;1.15;;;;;;;;;;5077089;28;20119;-71
2021/08/06 05:11:02;;;;;;;2.53;1.33;;;;;;;;;;5051770;28;20109;-71
2021/08/06 05:13:46;;;;;;;1.80;1.30;;;;;;;;;;5061065;28;20039;-71
2021/08/06 05:16:31;;;;;;;1.40;1.20;;;;;;;;;;5084864;28;20058;-71
2021/08/06 05:19:15;;;;;;;2.40;1.30;;;;;;;;;;5053318;28;20098;-71
2021/08/06 05:22:00;;;;;;;1.52;1.17;;;;;;;;;;5051224;28;20040;-71
2021/08/06 05:24:44;;;;;;;2.25;1.30;;;;;;;;;;5076403;28;20117;-71
2021/08/06 05:27:29;;;;;;;2.20;1.20;;;;;;;;;;5066089;28;20115;-71
2021/08/06 05:30:13;;;;;;;1.95;1.20;;;;;;;;;;5082289;28;20090;-71
2021/08/06 05:32:58;;;;;;;2.45;1.10;;;;;;;;;;5079261;28;20167;-71
2021/08/06 05:35:43;;;;;;;1.98;1.25;;;;;;;;;;5072117;28;20101;-71
2021/08/06 05:38:27;;;;;;;1.67;1.30;;;;;;;;;;5075368;27;20039;-72
2021/08/06 05:41:12;;;;;;;1.23;1.10;;;;;;;;;;5053773;28;20603;-72
2021/08/06 05:43:56;;;;;;;1.48;1.20;;;;;;;;;;5081391;28;20496;-72
2021/08/06 05:46:41;;;;;;;3.80;1.20;;;;;;;;;;5092645;27;20119;-72
2021/08/06 05:49:25;;;;;;;1.55;1.20;;;;;;;;;;5063307;28;20120;-73
2021/08/06 05:52:10;;;;;;;1.38;0.98;;;;;;;;;;5065676;28;20602;-72
2021/08/06 05:54:54;;;;;;;1.73;1.10;;;;;;;;;;5059032;28;20483;-72
2021/08/06 05:57:39;;;;;;;1.25;1.10;;;;;;;;;;5065795;28;20040;-72
2021/08/06 06:00:23;;;;;;;1.80;1.10;;;;;;;;;;5067568;28;20047;-71
2021/08/06 06:03:08;;;;;;;1.55;0.90;;;;;;;;;;5063527;28;20068;-72
2021/08/06 06:05:52;;;;;;;1.65;1.00;;;;;;;;;;5071505;28;20565;-73
2021/08/06 06:08:37;;;;;;;1.02;0.80;;;;;;;;;;5063414;28;20035;-73
2021/08/06 06:11:22;;;;;;;1.35;0.90;;;;;;;;;;5078256;28;20404;-73
2021/08/06 06:14:06;;;;;;;0.90;0.80;;;;;;;;;;5067860;28;20063;-73
2021/08/06 06:16:51;;;;;;;1.17;0.90;;;;;;;;;;5075964;28;20139;-72
2021/08/06 06:19:37;;;;;;;1.02;0.73;;;;;;;;;;5062286;28;20136;-73
2021/08/06 06:22:21;;;;;;;1.30;0.80;;;;;;;;;;5058292;28;20040;-72
2021/08/06 06:25:07;;;;;;;0.93;0.70;;;;;;;;;;5071870;28;20081;-72
2021/08/06 06:27:52;;;;;;;0.93;0.70;;;;;;;;;;5070174;28;20040;-72
2021/08/06 06:30:37;;;;;;;0.95;0.80;;;;;;;;;;5064660;28;20487;-72
2021/08/06 06:33:22;;;;;;;1.85;0.90;;;;;;;;;;5063345;28;20071;-72
2021/08/06 06:36:07;;;;;;;1.83;0.80;;;;;;;;;;5076485;28;20063;-72
2021/08/06 06:38:51;;;;;;;1.00;0.70;;;;;;;;;;5075717;28;20515;-73
2021/08/06 06:41:36;;;;;;;0.82;0.82;;;;;;;;;;5061825;28;20102;-73
2021/08/06 06:44:20;;;;;;;1.42;0.90;;;;;;;;;;5053723;28;20044;-73
2021/08/06 06:47:05;;;;;;;1.40;1.00;;;;;;;;;;5073535;28;20051;-73
2021/08/06 06:49:49;;;;;;;0.95;0.82;;;;;;;;;;5067012;28;20554;-73
2021/08/06 06:52:34;;;;;;;1.05;0.80;;;;;;;;;;5077574;28;20089;-71
2021/08/06 06:55:19;;;;;;;1.17;0.90;;;;;;;;;;5063317;28;20413;-72
2021/08/06 06:58:04;;;;;;;2.28;0.90;;;;;;;;;;5067543;28;20043;-72
2021/08/06 07:00:49;;;;;;;2.05;1.20;;;;;;;;;;5047628;28;21123;-73
2021/08/06 07:03:34;;;;;;;1.17;1.02;;;;;;;;;;5090463;28;20039;-73
2021/08/06 07:06:19;;;;;;;2.38;0.80;;;;;;;;;;5042884;28;20051;-72
2021/08/06 07:09:07;;;;;;;1.77;1.00;;;;;;;;;;5059946;28;20078;-73
2021/08/06 07:11:52;;;;;;;1.17;0.88;;;;;;;;;;5054945;28;20649;-71
2021/08/06 07:14:37;;;;;;;1.02;0.85;;;;;;;;;;5081439;28;20035;-71
2021/08/06 07:17:21;;;;;;;0.98;0.80;;;;;;;;;;5042815;28;20044;-72
2021/08/06 07:20:08;;;;;;;1.60;1.00;;;;;;;;;;5075574;28;20048;-72
2021/08/06 07:22:56;;;;;;;1.75;1.10;;;;;;;;;;5076227;28;20063;-74
2021/08/06 07:25:40;;;;;;;1.60;1.13;;;;;;;;;;5053244;28;20064;-72
2021/08/06 07:28:25;;;;;;;1.67;1.02;;;;;;;;;;5042547;28;20044;-72
2021/08/06 07:31:09;;;;;;;1.60;0.90;;;;;;;;;;5043602;28;20090;-73
2021/08/06 07:33:54;;;;;;;1.25;0.93;;;;;;;;;;5088524;28;20504;-73
2021/08/06 07:36:38;;;;;;;1.58;0.98;;;;;;;;;;5065251;28;20121;-73
2021/08/06 07:39:23;;;;;;;1.58;1.10;;;;;;;;;;5052292;28;20678;-73
2021/08/06 07:42:08;;;;;;;3.72;1.33;;;;;;;;;;5085572;28;20098;-73
2021/08/06 07:44:53;;;;;;;1.65;1.10;;;;;;;;;;5062142;28;20491;-73
2021/08/06 07:47:37;;;;;;;1.48;1.13;;;;;;;;;;5049886;28;20056;-72
2021/08/06 07:50:22;;;;;;;1.35;0.95;;;;;;;;;;5070720;28;20056;-72
2021/08/06 07:53:06;;;;;;;2.05;1.08;;;;;;;;;;5073562;28;20043;-72
2021/08/06 07:55:52;;;;;;;2.38;1.17;;;;;;;;;;5060507;28;20420;-73
2021/08/06 07:58:37;;;;;;;2.58;1.20;;;;;;;;;;5058590;28;20050;-72
2021/08/06 08:01:22;;;;;;;3.42;1.50;;;;;;;;;;5071091;28;20139;-72
2021/08/06 08:04:06;;;;;;;1.55;1.27;;;;;;;;;;5054603;28;20125;-71
2021/08/06 08:06:51;;;;;;;1.70;1.17;;;;;;;;;;5057033;28;20132;-71
2021/08/06 08:09:35;;;;;;;2.63;1.45;;;;;;;;;;5047710;28;20102;-70
2021/08/06 08:12:20;;;;;;;2.92;1.38;;;;;;;;;;5062666;28;20120;-71
2021/08/06 08:15:05;;;;;;;2.28;1.30;;;;;;;;;;5067110;28;20087;-72
2021/08/06 08:17:50;;;;;;;3.20;1.25;;;;;;;;;;5086897;28;20127;-71
2021/08/06 08:20:34;;;;;;;2.17;1.30;;;;;;;;;;5091593;28;20123;-72
2021/08/06 08:23:19;;;;;;;1.98;1.05;;;;;;;;;;5062600;28;20042;-72
2021/08/06 08:26:04;;;;;;;2.50;1.38;;;;;;;;;;5066319;28;20090;-72
2021/08/06 08:28:49;;;;;;;3.60;1.50;;;;;;;;;;5064743;28;20059;-77
2021/08/06 08:31:33;;;;;;;2.42;1.40;;;;;;;;;;5060547;28;20413;-71
2021/08/06 08:34:18;;;;;;;2.20;1.25;;;;;;;;;;5063922;28;20058;-72
2021/08/06 08:37:03;;;;;;;2.13;1.30;;;;;;;;;;5061501;28;20035;-73
2021/08/06 08:39:48;;;;;;;2.92;1.20;;;;;;;;;;5077183;28;20085;-73
2021/08/06 08:42:32;;;;;;;2.40;1.33;;;;;;;;;;5064278;28;20035;-75
2021/08/06 08:45:17;;;;;;;3.63;1.50;;;;;;;;;;5050871;28;20098;-75
2021/08/06 08:48:02;;;;;;;2.88;1.60;;;;;;;;;;5059686;28;20160;-75
2021/08/06 08:50:46;;;;;;;2.25;1.30;;;;;;;;;;5062662;28;20904;-75
2021/08/06 08:53:31;;;;;;;3.67;1.50;;;;;;;;;;5046494;28;20051;-75
2021/08/06 08:56:16;;;;;;;2.67;1.60;;;;;;;;;;5045907;28;20051;-75
2021/08/06 08:59:00;;;;;;;3.17;1.75;;;;;;;;;;5066173;28;20097;-75
2021/08/06 09:01:45;;;;;;;3.40;1.40;;;;;;;;;;5064943;28;20056;-75
2021/08/06 09:04:30;;;;;;;1.85;1.40;;;;;;;;;;5094059;28;20079;-75
2021/08/06 09:07:30;;;;;;;3.53;1.60;;;;;;;;;;5075530;28;20051;-75
2021/08/06 09:10:19;;;;;;;2.75;1.52;;;;;;;;;;5065347;28;20123;-75
2021/08/06 09:13:04;;;;;;;2.20;1.40;;;;;;;;;;5061302;28;20920;-76
2021/08/06 09:15:49;;;;;;;2.70;1.50;;;;;;;;;;5066063;28;20833;-75
2021/08/06 09:18:35;;;;;;;4.30;1.70;;;;;;;;;;5069384;28;20039;-75
2021/08/06 09:21:21;;;;;;;1.85;1.30;;;;;;;;;;5062870;28;20039;-76
2021/08/06 09:24:06;;;;;;;2.28;1.52;;;;;;;;;;5072386;28;20042;-75
2021/08/06 09:26:51;;;;;;;2.25;1.20;;;;;;;;;;5050998;28;20082;-75
2021/08/06 09:29:39;;;;;;;2.95;1.80;;;;;;;;;;5060289;28;20520;-76
2021/08/06 09:32:24;;;;;;;2.42;1.60;;;;;;;;;;5092182;27;20097;-76
2021/08/06 09:35:09;;;;;;;2.67;1.70;;;;;;;;;;5064308;28;20039;-76
2021/08/06 09:37:54;;;;;;;2.38;1.52;;;;;;;;;;5030714;28;20094;-76
2021/08/06 09:40:39;;;;;;;2.67;1.65;;;;;;;;;;5076148;28;20082;-75
2021/08/06 09:43:24;;;;;;;3.30;1.70;;;;;;;;;;5050678;28;20110;-75
2021/08/06 09:46:26;;;;;;;2.90;1.75;;;;;;;;;;5064043;28;20055;-76
2021/08/06 09:49:11;;;;;;;4.30;1.70;;;;;;;;;;5062862;28;20048;-76
2021/08/06 09:51:55;;;;;;;2.83;1.63;;;;;;;;;;5088427;28;20052;-75
2021/08/06 09:54:40;;;;;;;1.67;1.40;;;;;;;;;;5072766;28;20047;-75
2021/08/06 09:57:25;;;;;;;2.78;1.65;;;;;;;;;;5048647;28;20047;-75
2021/08/06 10:00:10;;;;;;;3.75;2.05;;;;;;;;;;5059398;28;20031;-75
2021/08/06 10:02:55;;;;;;;3.10;1.60;;;;;;;;;;5049461;28;20085;-76
2021/08/06 10:05:40;;;;;;;2.63;1.80;;;;;;;;;;5063461;28;20130;-75
2021/08/06 10:08:24;;;;;;;3.63;1.63;;;;;;;;;;5057444;28;20476;-76
2021/08/06 10:11:09;;;;;;;3.97;1.55;;;;;;;;;;5064556;28;20039;-75
2021/08/06 10:13:53;;;;;;;3.25;1.90;;;;;;;;;;5065453;28;20047;-76
2021/08/06 10:16:38;;;;;;;3.22;1.90;;;;;;;;;;5065997;28;20047;-76
2021/08/06 10:19:23;;;;;;;2.78;1.80;;;;;;;;;;5052759;28;20469;-76
2021/08/06 10:22:09;;;;;;;4.90;2.20;;;;;;;;;;5072528;28;20046;-76
2021/08/06 10:24:54;;;;;;;2.97;1.60;;;;;;;;;;5071447;28;20504;-78
2021/08/06 10:27:43;;;;;;;2.88;1.92;;;;;;;;;;5069973;28;20070;-76
2021/08/06 10:30:29;;;;;;;3.92;1.85;;;;;;;;;;5063054;28;20043;-75
2021/08/06 10:33:19;;;;;;;4.43;2.00;;;;;;;;;;5083734;28;20090;-75
2021/08/06 10:36:05;;;;;;;3.20;1.70;;;;;;;;;;5062936;28;20051;-75
2021/08/06 10:38:49;;;;;;;2.85;1.95;;;;;;;;;;5043386;28;20078;-76
2021/08/06 10:41:48;;;;;;;3.22;1.90;;;;;;;;;;5078918;28;20074;-76
2021/08/06 10:45:00;;;;;;;2.75;1.73;;;;;;;;;;5062235;28;20047;-77
2021/08/06 10:47:52;;;;;;;4.18;1.77;;;;;;;;;;5043102;28;20529;-75
2021/08/06 10:50:36;;;;;;;2.90;1.55;;;;;;;;;;5087358;28;20074;-75
2021/08/06 10:53:22;;;;;;;4.47;1.80;;;;;;;;;;5080871;28;20126;-76
2021/08/06 10:56:16;;;;;;;3.83;1.92;;;;;;;;;;5038708;28;20777;-75
2021/08/06 10:59:02;;;;;;;2.90;2.00;;;;;;;;;;5068000;28;20059;-75
2021/08/06 11:01:48;;;;;;;3.50;1.80;;;;;;;;;;5067203;28;20070;-76
2021/08/06 11:04:34;;;;;;;4.57;2.28;;;;;;;;;;5043491;28;20114;-75
2021/08/06 11:07:32;;;;;;;3.30;1.90;;;;;;;;;;5051219;28;20129;-75
2021/08/06 11:10:35;;;;;;;2.95;1.70;;;;;;;;;;5043733;28;20083;-75
2021/08/06 11:13:32;;;;;;;4.30;2.05;;;;;;;;;;5069798;28;20039;-74
2021/08/06 11:16:17;;;;;;;2.65;1.88;;;;;;;;;;5074693;28;20517;-74
2021/08/06 11:19:01;;;;;;;3.60;1.75;;;;;;;;;;5097905;27;20047;-74
2021/08/06 11:21:46;;;;;;;3.47;2.00;;;;;;;;;;5063844;28;20831;-75
2021/08/06 11:24:41;;;;;;;5.70;2.22;;;;;;;;;;5061365;28;20182;-75
2021/08/06 11:27:37;;;;;;;3.45;1.98;;;;;;;;;;5091244;28;20581;-74
2021/08/06 11:30:23;;;;;;;5.45;2.22;;;;;;;;;;5083178;28;20074;-75
2021/08/06 11:33:08;;;;;;;3.63;2.05;;;;;;;;;;5095905;27;20039;-75
2021/08/06 11:35:53;;;;;;;4.47;2.05;;;;;;;;;;5068348;28;20027;-75
2021/08/06 11:38:38;;;;;;;4.15;2.33;;;;;;;;;;5078723;28;20101;-76
2021/08/06 11:41:22;;;;;;;4.22;2.13;;;;;;;;;;5071560;28;20043;-75
2021/08/06 11:44:07;;;;;;;5.93;2.33;;;;;;;;;;5051854;28;20096;-75
2021/08/06 11:46:53;;;;;;;3.55;2.08;;;;;;;;;;5063431;28;20219;-75
2021/08/06 11:49:37;;;;;;;5.30;1.95;;;;;;;;;;5062222;28;20116;-75
2021/08/06 11:52:35;;;;;;;4.10;1.92;;;;;;;;;;5067656;28;20034;-75
2021/08/06 11:55:20;;;;;;;2.63;1.92;;;;;;;;;;5068215;28;20045;-75
2021/08/06 11:58:05;;;;;;;3.15;1.80;;;;;;;;;;5051044;28;20654;-75
2021/08/06 12:00:49;;;;;;;4.32;1.98;;;;;;;;;;5061536;28;20035;-76
2021/08/06 12:03:44;;;;;;;3.08;1.63;;;;;;;;;;5061924;28;20089;-76
2021/08/06 12:06:28;;;;;;;2.60;1.65;;;;;;;;;;5062184;28;20087;-75
2021/08/06 12:09:13;;;;;;;2.50;1.83;;;;;;;;;;5061739;28;20113;-75
2021/08/06 12:11:57;;;;;;;2.33;1.75;;;;;;;;;;5062134;28;20147;-76
2021/08/06 12:14:42;;;;;;;3.40;1.80;;;;;;;;;;5061905;28;20824;-75
2021/08/06 12:17:28;;;;;;;2.45;1.60;;;;;;;;;;5072699;28;20048;-74
2021/08/06 12:20:13;;;;;;;5.55;1.73;;;;;;;;;;5051502;28;20039;-76
2021/08/06 12:22:57;;;;;;;3.90;1.48;;;;;;;;;;5076512;28;20136;-76
2021/08/06 12:25:59;;;;;;;3.75;1.92;;;;;;;;;;5077504;28;20079;-76
2021/08/06 12:28:49;;;;;;;3.10;1.40;;;;;;;;;;5047603;28;20040;-75
2021/08/06 12:31:33;;;;;;;2.13;1.17;;;;;;;;;;5048076;28;20071;-75
2021/08/06 12:34:19;;;;;;;4.78;1.80;;;;;;;;;;5062123;28;20035;-75
2021/08/06 12:37:04;;;;;;;2.08;1.25;;;;;;;;;;5063169;28;20040;-75
2021/08/06 12:39:49;;;;;;;3.45;1.25;;;;;;;;;;5060082;28;20055;-75
2021/08/06 12:42:38;;;;;;;2.38;1.20;;;;;;;;;;5051388;28;20083;-74
2021/08/06 12:45:22;;;;;;;1.73;1.05;;;;;;;;;;5042416;28;20052;-75
2021/08/06 12:48:07;;;;;;;4.35;1.50;;;;;;;;;;5075571;28;20094;-75
2021/08/06 12:50:51;;;;;;;2.08;1.10;;;;;;;;;;5082094;28;20127;-75
2021/08/06 12:53:36;;;;;;;2.55;1.13;;;;;;;;;;5067643;28;20047;-75
2021/08/06 12:56:20;;;;;;;1.83;1.20;;;;;;;;;;5082986;28;20590;-76
2021/08/06 12:59:18;;;;;;;1.63;1.10;;;;;;;;;;5082309;28;20061;-76
2021/08/06 13:02:13;;;;;;;1.90;1.00;;;;;;;;;;5051665;28;20551;-75
2021/08/06 13:04:57;;;;;;;1.40;1.00;;;;;;;;;;5062437;28;20047;-76
2021/08/06 13:07:42;;;;;;;3.08;1.10;;;;;;;;;;5081483;28;20154;-76
2021/08/06 13:10:30;;;;;;;2.85;1.20;;;;;;;;;;5067518;28;20089;-76
2021/08/06 13:13:15;;;;;;;2.75;1.30;;;;;;;;;;5083758;28;20170;-73
2021/08/06 13:16:00;;;;;;;3.63;1.08;;;;;;;;;;5041838;28;20038;-73
2021/08/06 13:18:45;;;;;;;3.13;1.00;;;;;;;;;;5083700;28;20541;-73
2021/08/06 13:21:29;;;;;;;2.40;1.00;;;;;;;;;;5059476;28;20103;-73
2021/08/06 13:24:14;;;;;;;6.30;1.45;;;;;;;;;;5065427;28;20032;-75
2021/08/06 13:26:58;;;;;;;8.55;1.40;;;;;;;;;;5093539;28;20047;-78
2021/08/06 13:29:43;;;;;;;2.65;1.00;;;;;;;;;;5096836;27;20044;-80
2021/08/06 13:32:28;;;;;;;3.78;1.17;;;;;;;;;;5069103;28;20760;-79
2021/08/06 13:35:13;;;;;;;2.72;1.00;;;;;;;;;;5051591;28;20086;-79
2021/08/06 13:37:59;;;;;;;1.80;1.00;;;;;;;;;;5046935;28;20559;-77
2021/08/06 13:40:43;;;;;;;2.42;1.10;;;;;;;;;;5072538;28;20545;-78
2021/08/06 13:43:28;;;;;;;2.50;1.10;;;;;;;;;;5062250;28;20094;-77
2021/08/06 13:46:12;;;;;;;2.22;1.08;;;;;;;;;;5081285;28;20050;-74
2021/08/06 13:48:57;;;;;;;2.17;1.20;;;;;;;;;;5064953;28;20039;-75
2021/08/06 13:51:41;;;;;;;1.60;1.00;;;;;;;;;;5063109;28;20051;-76
2021/08/06 13:54:26;;;;;;;6.35;1.70;;;;;;;;;;5085887;28;20047;-77
2021/08/06 13:57:11;;;;;;;7.45;1.65;;;;;;;;;;5066240;28;20043;-79
2021/08/06 13:59:55;;;;;;;13.60;2.25;;;;;;;;;;5066205;28;20607;-78
2021/08/06 14:02:40;;;;;;;11.35;1.85;;;;;;;;;;5066663;28;20347;-76
2021/08/06 14:05:24;;;;;;;13.38;2.20;;;;;;;;;;5051944;28;20425;-78
2021/08/06 14:08:08;;;;;;;8.82;2.10;;;;;;;;;;5064388;28;20102;-77
2021/08/06 14:10:53;;;;;;;8.57;1.83;;;;;;;;;;5065279;28;20035;-77
2021/08/06 14:13:38;;;;;;;11.05;1.90;;;;;;;;;;5054750;28;20598;-81
2021/08/06 14:16:22;;;;;;;9.63;1.75;;;;;;;;;;5053451;28;20035;-79
2021/08/06 14:19:06;;;;;;;6.53;1.73;;;;;;;;;;5050755;28;20083;-76
2021/08/06 14:21:51;;;;;;;5.32;1.63;;;;;;;;;;5067223;28;20086;-76
2021/08/06 14:24:36;;;;;;;7.15;1.60;;;;;;;;;;5067488;28;20039;-78
2021/08/06 14:27:22;;;;;;;6.07;2.05;;;;;;;;;;5068726;28;20047;-78
2021/08/06 14:30:07;;;;;;;4.40;1.50;;;;;;;;;;5062514;28;20035;-79
2021/08/06 14:32:51;;;;;;;8.73;1.90;;;;;;;;;;5066628;28;20548;-78
2021/08/06 14:35:36;;;;;;;4.57;1.50;;;;;;;;;;5047938;28;20511;-83
2021/08/06 14:38:21;;;;;;;7.47;1.92;;;;;;;;;;5066647;28;20063;-85
2021/08/06 14:41:05;;;;;;;4.65;1.33;;;;;;;;;;5065966;28;20040;-82
2021/08/06 14:43:50;;;;;;;4.95;1.52;;;;;;;;;;5050042;28;20089;-83
2021/08/06 14:46:34;;;;;;;3.90;1.35;;;;;;;;;;5060509;28;20063;-77
2021/08/06 14:49:19;;;;;;;4.80;1.60;;;;;;;;;;5096506;27;20035;-80
2021/08/06 14:52:04;;;;;;;4.32;1.42;;;;;;;;;;5069529;28;20066;-83
2021/08/06 14:54:49;;;;;;;3.60;1.38;;;;;;;;;;5083546;28;20035;-81
2021/08/06 14:57:35;;;;;;;12.85;2.25;;;;;;;;;;5066324;28;20116;-77
2021/08/06 15:00:20;;;;;;;11.00;1.98;;;;;;;;;;5064321;28;20039;-81
2021/08/06 15:03:04;;;;;;;13.32;2.17;;;;;;;;;;5050540;28;20043;-80
2021/08/06 15:05:50;;;;;;;11.85;1.90;;;;;;;;;;5079554;28;20082;-79
2021/08/06 15:08:34;;;;;;;10.57;2.20;;;;;;;;;;5101980;27;20067;-79
2021/08/06 15:11:19;;;;;;;5.78;1.60;;;;;;;;;;5063774;28;20047;-80
2021/08/06 15:14:04;;;;;;;10.38;1.70;;;;;;;;;;5074792;28;20048;-78
2021/08/06 15:16:49;;;;;;;8.20;1.67;;;;;;;;;;5084929;28;20043;-79
2021/08/06 15:19:34;;;;;;;11.63;1.73;;;;;;;;;;5068600;28;20039;-78
2021/08/06 15:22:19;;;;;;;6.82;1.50;;;;;;;;;;5084820;28;20039;-80
2021/08/06 15:25:04;;;;;;;3.22;1.48;;;;;;;;;;5036756;28;20071;-81
2021/08/06 15:27:49;;;;;;;8.23;1.60;;;;;;;;;;5042562;28;20124;-80
2021/08/06 15:30:33;;;;;;;8.05;1.55;;;;;;;;;;5085005;27;20044;-81
2021/08/06 15:33:18;;;;;;;9.93;2.42;;;;;;;;;;5052325;28;20036;-81
2021/08/06 15:36:03;;;;;;;3.45;1.40;;;;;;;;;;5060607;28;20089;-78
2021/08/06 15:38:48;;;;;;;3.33;1.40;;;;;;;;;;5074840;28;20119;-80
2021/08/06 15:41:33;;;;;;;4.05;1.50;;;;;;;;;;5091918;27;20404;-77
2021/08/06 15:44:18;;;;;;;4.18;1.67;;;;;;;;;;5087663;27;20082;-75
2021/08/06 15:47:02;;;;;;;4.80;1.60;;;;;;;;;;5069211;28;20039;-78
2021/08/06 15:49:49;;;;;;;4.68;1.50;;;;;;;;;;5097033;27;20043;-77
2021/08/06 15:52:34;;;;;;;5.97;1.52;;;;;;;;;;5060085;28;20112;-76
2021/08/06 15:55:19;;;;;;;5.10;1.73;;;;;;;;;;5050592;28;20106;-78
2021/08/06 15:58:03;;;;;;;3.47;1.40;;;;;;;;;;5037974;28;20032;-81
2021/08/06 16:00:49;;;;;;;2.75;1.70;;;;;;;;;;5077079;28;20120;-75
2021/08/06 16:03:33;;;;;;;6.57;1.90;;;;;;;;;;5091252;28;20093;-78
2021/08/06 16:06:18;;;;;;;3.35;1.80;;;;;;;;;;5089101;28;20059;-81
2021/08/06 16:09:02;;;;;;;3.28;1.50;;;;;;;;;;5071751;28;20694;-80
2021/08/06 16:11:47;;;;;;;7.13;1.73;;;;;;;;;;5067457;28;20093;-83
2021/08/06 16:14:31;;;;;;;2.55;1.40;;;;;;;;;;5060950;28;20078;-83
2021/08/06 16:17:16;;;;;;;3.63;1.58;;;;;;;;;;5064032;28;20138;-80
2021/08/06 16:20:00;;;;;;;2.67;1.60;;;;;;;;;;5071459;28;20042;-84
2021/08/06 16:22:45;;;;;;;3.75;1.60;;;;;;;;;;5072749;28;20101;-76
2021/08/06 16:25:29;;;;;;;2.30;1.60;;;;;;;;;;5048722;28;20770;-78
2021/08/06 16:28:15;;;;;;;3.25;1.63;;;;;;;;;;5062830;28;20062;-82
2021/08/06 16:31:00;;;;;;;3.45;1.65;;;;;;;;;;5063736;28;20173;-83
2021/08/06 16:33:44;;;;;;;3.85;1.85;;;;;;;;;;5079983;28;20505;-80